Time;durP1;ratioP1;P1;durP2;ratioP2;P2;SDS_P1;SDS_P2;PMS_P1;PMS_P2;Temp;Humidity;BMP_temperature;BMP_pressure;BME280_temperature;BME280_humidity;BME280_pressure;Samples;Min_cycle;Max_cycle;Signal;HPM_P1;HPM_P2
2022/04/01 00:02:04;;;;;;;17.27;13.20;;;6.80;99.90;;;;;;5026905;28;20407;-73
2022/04/01 00:04:50;;;;;;;18.07;13.27;;;6.50;99.90;;;;;;5028821;28;20443;-73
2022/04/01 00:07:38;;;;;;;17.10;13.43;;;6.60;99.90;;;;;;5032740;28;20426;-73
2022/04/01 00:10:24;;;;;;;19.20;14.00;;;6.60;99.90;;;;;;5026437;28;20459;-73
2022/04/01 00:13:10;;;;;;;20.00;15.40;;;6.60;99.90;;;;;;5031688;28;20450;-72
2022/04/01 00:15:58;;;;;;;21.53;16.67;;;6.50;99.90;;;;;;5025910;28;20471;-72
2022/04/01 00:18:44;;;;;;;23.87;18.53;;;6.40;99.90;;;;;;5033504;28;20925;-72
2022/04/01 00:21:30;;;;;;;21.87;16.63;;;6.30;99.90;;;;;;5034205;28;20917;-73
2022/04/01 00:24:15;;;;;;;22.47;18.67;;;6.50;99.90;;;;;;5030372;28;20482;-72
2022/04/01 00:27:01;;;;;;;24.70;17.60;;;6.50;99.90;;;;;;5030307;28;20471;-72
2022/04/01 00:29:48;;;;;;;23.77;17.80;;;6.50;99.90;;;;;;5030478;28;20459;-73
2022/04/01 00:32:35;;;;;;;24.23;19.00;;;6.60;99.90;;;;;;5029602;28;20442;-72
2022/04/01 00:35:21;;;;;;;22.83;18.27;;;6.60;99.90;;;;;;5021672;28;20610;-73
2022/04/01 00:38:08;;;;;;;25.10;17.57;;;6.60;99.90;;;;;;5033519;28;20452;-73
2022/04/01 00:40:53;;;;;;;24.77;19.37;;;6.70;99.90;;;;;;5033383;28;20464;-72
2022/04/01 00:43:39;;;;;;;23.73;17.37;;;6.70;99.90;;;;;;5029496;28;20411;-73
2022/04/01 00:46:25;;;;;;;26.80;18.50;;;6.80;99.90;;;;;;5027905;28;20472;-73
2022/04/01 00:49:12;;;;;;;23.17;18.10;;;6.90;99.90;;;;;;5020697;28;21541;-72
2022/04/01 00:52:00;;;;;;;19.77;16.60;;;6.90;99.90;;;;;;5026907;28;20476;-73
2022/04/01 00:54:46;;;;;;;23.43;17.80;;;6.80;99.90;;;;;;5035301;28;20452;-73
2022/04/01 00:57:32;;;;;;;27.20;19.43;;;6.90;99.90;;;;;;5030462;28;20490;-73
2022/04/01 01:00:19;;;;;;;27.50;19.53;;;6.90;99.90;;;;;;5026527;28;20452;-72
2022/04/01 01:03:05;;;;;;;24.53;18.43;;;6.70;99.90;;;;;;5028016;28;20508;-73
2022/04/01 01:05:52;;;;;;;25.53;19.10;;;6.80;99.90;;;;;;5034300;28;20513;-73
2022/04/01 01:08:37;;;;;;;26.37;21.40;;;6.80;99.90;;;;;;5032805;28;20445;-73
2022/04/01 01:11:25;;;;;;;27.27;21.40;;;6.60;99.90;;;;;;5025726;28;20481;-73
2022/04/01 01:14:13;;;;;;;23.20;19.60;;;6.60;99.90;;;;;;5034847;28;20491;-73
2022/04/01 01:16:59;;;;;;;25.80;20.63;;;6.70;99.90;;;;;;5029953;28;21141;-73
2022/04/01 01:19:46;;;;;;;29.27;22.07;;;6.70;99.90;;;;;;5026757;28;20519;-72
2022/04/01 01:22:33;;;;;;;26.73;20.37;;;6.70;99.90;;;;;;5033201;28;20583;-72
2022/04/01 01:25:20;;;;;;;29.07;22.07;;;6.70;99.90;;;;;;5027687;28;20477;-73
2022/04/01 01:28:07;;;;;;;28.80;22.10;;;6.70;99.90;;;;;;5028737;28;20789;-73
2022/04/01 01:30:54;;;;;;;29.90;22.00;;;6.70;99.90;;;;;;5027747;28;20785;-72
2022/04/01 01:33:43;;;;;;;30.30;22.73;;;6.70;99.90;;;;;;5028191;28;20449;-72
2022/04/01 01:36:30;;;;;;;26.73;20.90;;;6.70;99.90;;;;;;5033109;28;20454;-73
2022/04/01 01:39:16;;;;;;;29.53;23.30;;;6.70;99.90;;;;;;5025577;28;20531;-73
2022/04/01 01:42:05;;;;;;;27.97;22.30;;;6.60;99.90;;;;;;5029658;28;20419;-73
2022/04/01 01:44:51;;;;;;;26.70;20.40;;;6.60;99.90;;;;;;5030833;28;20455;-72
2022/04/01 01:47:37;;;;;;;30.40;22.00;;;6.70;99.90;;;;;;5031387;28;20451;-73
2022/04/01 01:56:29;;;;;;;27.90;22.20;;;6.70;99.90;;;;;;5028655;28;20797;-72
2022/04/01 01:59:16;;;;;;;28.30;22.00;;;6.80;99.90;;;;;;5025028;28;20456;-72
2022/04/01 02:02:05;;;;;;;29.00;22.43;;;6.80;99.90;;;;;;5031126;28;20444;-72
2022/04/01 02:04:51;;;;;;;26.83;21.30;;;6.90;99.90;;;;;;5028611;28;20652;-72
2022/04/01 02:07:37;;;;;;;28.80;22.60;;;6.80;99.90;;;;;;5029700;28;20448;-73
2022/04/01 02:10:23;;;;;;;28.33;21.90;;;6.90;99.90;;;;;;5024643;28;20452;-73
2022/04/01 02:13:09;;;;;;;27.80;21.57;;;6.80;99.90;;;;;;5033284;28;20471;-72
2022/04/01 02:15:56;;;;;;;28.70;21.97;;;6.80;99.90;;;;;;5031143;28;20455;-72
2022/04/01 02:18:42;;;;;;;32.10;24.30;;;6.80;99.90;;;;;;5031322;28;20426;-72
2022/04/01 02:21:27;;;;;;;30.30;22.63;;;6.80;99.90;;;;;;5029917;28;20436;-73
2022/04/01 02:24:13;;;;;;;31.73;23.33;;;6.70;99.90;;;;;;5030329;28;20498;-72
2022/04/01 02:27:00;;;;;;;31.90;23.83;;;6.70;99.90;;;;;;5027776;28;20494;-73
2022/04/01 02:29:46;;;;;;;32.00;24.53;;;6.60;99.90;;;;;;5030948;28;20414;-72
2022/04/01 02:32:34;;;;;;;35.70;24.83;;;6.70;99.90;;;;;;5029691;28;20466;-72
2022/04/01 02:35:20;;;;;;;33.33;26.30;;;6.70;99.90;;;;;;5030851;28;20476;-72
2022/04/01 02:38:05;;;;;;;32.07;25.00;;;6.60;99.90;;;;;;5027525;28;20444;-72
2022/04/01 02:40:51;;;;;;;36.33;25.80;;;6.60;99.90;;;;;;5030663;28;20419;-72
2022/04/01 02:43:37;;;;;;;35.40;26.63;;;6.50;99.90;;;;;;5030558;28;20524;-72
2022/04/01 02:46:23;;;;;;;30.60;24.60;;;6.50;99.90;;;;;;5026550;28;20471;-73
2022/04/01 02:49:11;;;;;;;30.17;24.67;;;6.50;99.90;;;;;;5024174;28;21024;-73
2022/04/01 02:51:57;;;;;;;33.30;24.13;;;6.50;99.90;;;;;;5031335;28;20529;-72
2022/04/01 02:54:42;;;;;;;32.53;24.80;;;6.40;99.90;;;;;;5030529;28;20431;-72
2022/04/01 02:57:28;;;;;;;31.70;25.00;;;6.40;99.90;;;;;;5029810;28;20453;-72
2022/04/01 03:00:21;;;;;;;31.20;24.53;;;6.40;99.90;;;;;;5026489;28;20478;-72
2022/04/01 03:03:08;;;;;;;31.40;23.93;;;6.40;99.90;;;;;;5029061;28;21294;-72
2022/04/01 03:05:55;;;;;;;33.10;24.90;;;6.40;99.90;;;;;;5027516;28;20550;-74
2022/04/01 03:08:42;;;;;;;31.00;23.40;;;6.50;99.90;;;;;;5024731;28;20447;-73
2022/04/01 03:11:27;;;;;;;29.00;23.50;;;6.40;99.90;;;;;;5027489;28;20939;-72
2022/04/01 03:14:13;;;;;;;29.67;23.40;;;6.40;99.90;;;;;;5029561;28;21023;-72
2022/04/01 03:16:59;;;;;;;29.50;23.90;;;6.50;99.90;;;;;;5030258;28;20471;-73
2022/04/01 03:19:45;;;;;;;33.70;23.87;;;6.50;99.90;;;;;;5026844;28;20451;-72
2022/04/01 03:22:32;;;;;;;29.13;23.57;;;6.40;99.90;;;;;;5027007;28;20507;-72
2022/04/01 03:25:20;;;;;;;29.00;22.70;;;6.40;99.90;;;;;;5026987;28;20471;-72
2022/04/01 03:28:06;;;;;;;29.00;22.70;;;6.30;99.90;;;;;;5025533;28;20449;-72
2022/04/01 03:30:52;;;;;;;28.93;23.63;;;6.30;99.90;;;;;;5031421;28;20965;-73
2022/04/01 03:33:38;;;;;;;28.77;22.23;;;6.30;99.90;;;;;;5029831;28;21025;-73
2022/04/01 03:36:24;;;;;;;29.53;23.03;;;6.30;99.90;;;;;;5027492;28;20467;-73
2022/04/01 03:39:12;;;;;;;25.83;20.60;;;6.10;99.90;;;;;;5026313;28;20450;-73
2022/04/01 03:41:58;;;;;;;30.50;23.80;;;6.00;99.90;;;;;;5030296;28;21016;-73
2022/04/01 03:44:43;;;;;;;30.80;23.33;;;6.00;99.90;;;;;;5026812;28;21907;-73
2022/04/01 03:47:37;;;;;;;28.70;22.83;;;6.00;99.90;;;;;;5025709;28;20502;-73
2022/04/01 03:50:30;;;;;;;26.83;19.98;;;6.10;99.90;;;;;;5029315;28;20455;-73
2022/04/01 03:53:17;;;;;;;28.53;22.27;;;6.10;99.90;;;;;;5026486;28;20736;-72
2022/04/01 03:56:06;;;;;;;25.30;20.70;;;6.10;99.90;;;;;;5030020;28;21054;-73
2022/04/01 03:58:54;;;;;;;28.07;22.40;;;6.20;99.90;;;;;;5024628;28;20686;-73
2022/04/01 04:01:40;;;;;;;24.43;19.87;;;6.30;99.90;;;;;;5029162;28;20813;-73
2022/04/01 04:04:26;;;;;;;26.30;19.70;;;6.30;99.90;;;;;;5029142;28;20445;-72
2022/04/01 04:07:11;;;;;;;23.50;18.40;;;6.20;99.90;;;;;;5023525;28;20545;-72
2022/04/01 04:09:59;;;;;;;26.47;19.93;;;6.20;99.90;;;;;;5027462;28;21075;-73
2022/04/01 04:12:47;;;;;;;25.90;20.40;;;6.10;99.90;;;;;;5030480;28;20472;-73
2022/04/01 04:15:41;;;;;;;24.20;19.00;;;6.00;99.90;;;;;;5023995;28;22052;-73
2022/04/01 04:18:34;;;;;;;26.80;20.13;;;6.00;99.90;;;;;;5023568;28;20807;-73
2022/04/01 04:21:25;;;;;;;25.30;19.47;;;6.00;99.90;;;;;;5030121;28;20464;-73
2022/04/01 04:24:18;;;;;;;25.93;21.07;;;6.00;99.90;;;;;;5030884;28;20780;-72
2022/04/01 04:27:11;;;;;;;25.17;20.47;;;6.00;99.90;;;;;;5024164;28;20575;-73
2022/04/01 04:30:08;;;;;;;23.90;19.77;;;6.00;99.90;;;;;;5029637;28;20419;-72
2022/04/01 04:32:58;;;;;;;23.63;19.77;;;6.10;99.90;;;;;;5027561;28;20592;-72
2022/04/01 04:35:45;;;;;;;25.40;21.20;;;6.00;99.90;;;;;;5028821;28;21005;-72
2022/04/01 04:38:37;;;;;;;22.90;18.90;;;6.10;99.90;;;;;;5025230;28;20440;-73
2022/04/01 04:41:24;;;;;;;22.80;19.20;;;6.10;99.90;;;;;;5026180;28;20501;-73
2022/04/01 04:44:13;;;;;;;23.03;17.47;;;6.10;99.90;;;;;;5024197;28;20431;-73
2022/04/01 04:47:01;;;;;;;20.97;17.50;;;6.10;99.90;;;;;;5026982;28;20971;-72
2022/04/01 04:49:49;;;;;;;23.83;19.50;;;5.90;99.90;;;;;;5029829;28;20448;-73
2022/04/01 04:52:36;;;;;;;22.23;17.70;;;6.00;99.90;;;;;;5030903;28;20435;-73
2022/04/01 04:55:22;;;;;;;22.57;17.80;;;5.90;99.90;;;;;;5029178;28;20526;-73
2022/04/01 04:58:10;;;;;;;19.57;16.43;;;5.90;99.90;;;;;;5031927;28;20920;-73
2022/04/01 05:01:03;;;;;;;23.17;18.70;;;5.80;99.90;;;;;;5035751;28;20470;-73
2022/04/01 05:04:02;;;;;;;23.83;18.47;;;5.90;99.90;;;;;;5031598;28;21066;-73
2022/04/01 05:06:54;;;;;;;24.90;17.97;;;6.00;99.90;;;;;;5026028;28;20433;-73
2022/04/01 05:09:46;;;;;;;21.10;16.83;;;6.00;99.90;;;;;;5032630;28;20530;-73
2022/04/01 05:12:37;;;;;;;23.10;16.97;;;6.00;99.90;;;;;;5028010;28;20601;-73
2022/04/01 05:15:29;;;;;;;23.73;18.80;;;5.90;99.90;;;;;;5025669;28;20494;-72
2022/04/01 05:18:23;;;;;;;23.93;18.63;;;5.90;99.90;;;;;;5029733;28;20938;-73
2022/04/01 05:21:19;;;;;;;23.17;17.23;;;5.90;99.90;;;;;;5034687;28;20419;-73
2022/04/01 05:24:08;;;;;;;20.17;17.00;;;5.80;99.90;;;;;;5030914;28;20418;-73
2022/04/01 05:26:56;;;;;;;22.40;17.20;;;5.80;99.90;;;;;;5027541;28;21120;-73
2022/04/01 05:29:43;;;;;;;27.13;17.27;;;5.80;99.90;;;;;;5030019;28;20456;-73
2022/04/01 05:32:33;;;;;;;25.20;18.43;;;5.80;99.90;;;;;;5031264;28;20478;-73
2022/04/01 05:35:21;;;;;;;22.27;18.13;;;5.90;99.90;;;;;;5029062;28;20468;-73
2022/04/01 05:38:08;;;;;;;23.97;19.13;;;6.00;99.90;;;;;;5030841;28;20422;-73
2022/04/01 05:40:56;;;;;;;26.80;20.20;;;5.90;99.90;;;;;;5029833;28;20453;-72
2022/04/01 05:43:42;;;;;;;22.87;18.07;;;5.90;99.90;;;;;;5032305;28;20435;-73
2022/04/01 05:46:29;;;;;;;20.60;16.57;;;6.00;99.90;;;;;;5025977;28;21021;-73
2022/04/01 05:49:15;;;;;;;18.83;15.30;;;6.00;99.90;;;;;;5033475;28;20422;-73
2022/04/01 05:52:03;;;;;;;21.10;16.43;;;5.80;99.90;;;;;;5031338;28;20432;-73
2022/04/01 05:54:51;;;;;;;22.13;18.20;;;5.70;99.90;;;;;;5030950;28;20562;-73
2022/04/01 05:57:38;;;;;;;24.10;17.40;;;5.70;99.90;;;;;;5029594;28;21154;-72
2022/04/01 06:00:24;;;;;;;19.90;16.00;;;5.80;99.90;;;;;;5032577;28;20461;-72
2022/04/01 06:03:43;;;;;;;23.90;17.70;;;5.90;99.90;;;;;;5030293;28;20545;-72
2022/04/01 06:06:34;;;;;;;22.00;16.20;;;5.90;99.90;;;;;;5027754;28;21042;-72
2022/04/01 06:09:33;;;;;;;20.00;16.07;;;5.80;99.90;;;;;;5031300;28;20499;-72
2022/04/01 06:12:29;;;;;;;22.57;17.50;;;5.80;99.90;;;;;;5030770;28;20934;-73
2022/04/01 06:15:22;;;;;;;18.70;16.07;;;5.80;99.90;;;;;;5024869;28;20517;-72
2022/04/01 06:18:22;;;;;;;20.33;16.30;;;5.80;99.90;;;;;;5030495;28;20440;-73
2022/04/01 06:21:10;;;;;;;21.20;17.30;;;5.80;99.90;;;;;;5029257;28;20513;-73
2022/04/01 06:24:12;;;;;;;20.27;16.53;;;5.80;99.90;;;;;;5030778;28;20422;-73
2022/04/01 06:27:00;;;;;;;23.90;16.50;;;5.70;99.90;;;;;;5026167;28;20482;-72
2022/04/01 06:29:56;;;;;;;20.63;16.37;;;5.70;99.90;;;;;;5030599;28;20456;-72
2022/04/01 06:33:04;;;;;;;21.20;16.40;;;5.80;99.90;;;;;;5030628;28;20603;-73
2022/04/01 06:35:57;;;;;;;20.83;16.70;;;5.80;99.90;;;;;;5027348;28;20464;-72
2022/04/01 06:38:51;;;;;;;19.67;15.83;;;5.80;99.90;;;;;;5027015;28;20419;-72
2022/04/01 06:41:44;;;;;;;19.80;17.30;;;5.80;99.90;;;;;;5032900;28;20444;-73
2022/04/01 06:44:30;;;;;;;21.60;16.63;;;5.90;99.90;;;;;;5026293;28;20551;-72
2022/04/01 06:47:17;;;;;;;20.30;15.17;;;5.90;99.90;;;;;;5031220;28;20432;-72
2022/04/01 06:50:03;;;;;;;16.83;15.00;;;5.80;99.90;;;;;;5029531;28;20990;-72
2022/04/01 06:52:49;;;;;;;21.23;16.03;;;5.80;99.90;;;;;;5031065;28;20981;-72
2022/04/01 06:55:34;;;;;;;20.30;16.17;;;5.80;99.90;;;;;;5026085;28;20980;-72
2022/04/01 06:58:20;;;;;;;20.03;16.83;;;5.80;99.90;;;;;;5029236;28;20430;-73
2022/04/01 07:01:06;;;;;;;18.77;16.33;;;5.60;99.90;;;;;;5023309;28;20577;-73
2022/04/01 07:03:53;;;;;;;20.40;17.50;;;5.70;99.90;;;;;;5028563;28;21057;-73
2022/04/01 07:06:38;;;;;;;18.37;15.20;;;5.60;99.90;;;;;;5025245;28;20589;-73
2022/04/01 07:09:24;;;;;;;17.70;15.77;;;5.60;99.90;;;;;;5024783;28;20964;-73
2022/04/01 07:12:11;;;;;;;17.50;15.60;;;5.70;99.90;;;;;;5027999;28;20701;-73
2022/04/01 07:14:56;;;;;;;20.97;14.93;;;5.70;99.90;;;;;;5027759;28;20450;-73
2022/04/01 07:17:42;;;;;;;16.80;14.50;;;5.80;99.90;;;;;;5028971;28;20900;-72
2022/04/01 07:20:29;;;;;;;20.10;15.17;;;5.90;99.90;;;;;;5025245;28;20972;-72
2022/04/01 07:23:16;;;;;;;18.73;14.33;;;5.90;99.90;;;;;;5031324;28;20905;-72
2022/04/01 07:26:01;;;;;;;15.30;13.30;;;5.80;99.90;;;;;;5028192;28;20455;-72
2022/04/01 07:28:48;;;;;;;16.37;13.27;;;5.80;99.90;;;;;;5026342;28;20430;-73
2022/04/01 07:34:44;;;;;;;15.50;13.03;;;5.60;99.90;;;;;;5026642;28;21043;-72
2022/04/01 07:37:31;;;;;;;15.80;13.13;;;5.60;99.90;;;;;;5030664;28;20535;-72
2022/04/01 07:40:18;;;;;;;14.80;12.07;;;5.60;99.90;;;;;;5024655;28;20811;-72
2022/04/01 07:43:04;;;;;;;14.50;12.70;;;5.60;99.90;;;;;;5030164;28;20452;-72
2022/04/01 07:45:49;;;;;;;15.33;13.50;;;5.60;99.90;;;;;;5030778;28;20822;-72
2022/04/01 07:48:35;;;;;;;16.70;12.60;;;5.40;99.90;;;;;;5025151;28;20503;-72
2022/04/01 07:51:21;;;;;;;15.00;12.97;;;5.30;99.90;;;;;;5028395;28;20453;-72
2022/04/01 07:54:08;;;;;;;16.10;13.90;;;5.30;99.90;;;;;;5026060;28;20484;-73
2022/04/01 07:56:54;;;;;;;15.57;12.60;;;5.30;99.90;;;;;;5028785;28;20452;-72
2022/04/01 07:59:39;;;;;;;16.13;13.90;;;5.30;99.90;;;;;;5028663;28;20815;-73
2022/04/01 08:02:25;;;;;;;16.10;13.90;;;5.30;99.90;;;;;;5029568;28;20913;-72
2022/04/01 08:05:12;;;;;;;15.20;12.97;;;5.30;99.90;;;;;;5031275;28;20871;-72
2022/04/01 08:07:58;;;;;;;14.70;12.53;;;5.40;99.90;;;;;;5031197;28;20416;-72
2022/04/01 08:10:45;;;;;;;14.67;12.73;;;5.40;99.90;;;;;;5029628;28;20534;-72
2022/04/01 08:13:31;;;;;;;16.00;12.57;;;5.60;99.90;;;;;;5024162;28;20459;-72
2022/04/01 08:16:16;;;;;;;14.80;12.17;;;5.60;99.90;;;;;;5029610;28;20444;-72
2022/04/01 08:19:03;;;;;;;13.50;12.07;;;5.60;99.90;;;;;;5030625;28;20931;-72
2022/04/01 08:21:49;;;;;;;16.50;13.73;;;5.60;99.90;;;;;;5026758;28;20464;-73
2022/04/01 08:24:35;;;;;;;13.40;12.00;;;5.50;99.90;;;;;;5028877;28;20454;-72
2022/04/01 08:27:22;;;;;;;14.17;12.67;;;5.50;99.90;;;;;;5033906;28;20804;-72
2022/04/01 08:30:09;;;;;;;17.60;13.63;;;5.50;99.90;;;;;;5030374;28;20916;-72
2022/04/01 08:32:54;;;;;;;16.42;13.43;;;5.50;99.90;;;;;;5032858;28;20584;-72
2022/04/01 08:35:41;;;;;;;15.13;12.27;;;5.50;99.90;;;;;;5033620;28;20233;-71
2022/04/01 08:38:27;;;;;;;14.63;12.83;;;5.50;99.90;;;;;;5020851;28;20490;-71
2022/04/01 08:41:18;;;;;;;15.67;13.13;;;5.50;99.90;;;;;;5031660;28;21182;-71
2022/04/01 08:44:05;;;;;;;14.40;12.07;;;5.60;99.90;;;;;;5027929;28;20530;-71
2022/04/01 08:46:52;;;;;;;14.80;12.93;;;5.60;99.90;;;;;;5029359;28;21092;-71
2022/04/01 08:49:38;;;;;;;15.37;12.27;;;5.70;99.90;;;;;;5027509;28;20451;-71
2022/04/01 08:52:24;;;;;;;15.20;12.50;;;5.60;99.90;;;;;;5027921;28;20444;-71
2022/04/01 08:55:12;;;;;;;14.43;12.87;;;5.60;99.90;;;;;;5022369;28;20900;-71
2022/04/01 08:57:58;;;;;;;14.37;12.00;;;5.60;99.90;;;;;;5022600;28;20542;-72
2022/04/01 09:00:45;;;;;;;14.33;11.50;;;5.70;99.90;;;;;;5023363;28;20931;-72
2022/04/01 09:03:33;;;;;;;13.90;12.07;;;5.50;99.90;;;;;;5022922;28;20518;-71
2022/04/01 09:06:19;;;;;;;15.00;11.17;;;5.60;99.90;;;;;;5028845;28;20484;-72
2022/04/01 09:09:05;;;;;;;13.70;11.53;;;5.60;99.90;;;;;;5023341;28;20969;-71
2022/04/01 09:12:05;;;;;;;14.87;12.60;;;5.70;99.90;;;;;;5029355;28;20458;-71
2022/04/01 09:14:53;;;;;;;13.80;11.67;;;5.60;99.90;;;;;;5024513;28;20459;-71
2022/04/01 09:17:43;;;;;;;16.13;11.60;;;5.60;99.90;;;;;;5020978;28;20469;-71
2022/04/01 09:20:29;;;;;;;13.50;11.70;;;5.60;99.90;;;;;;5028300;28;20447;-71
2022/04/01 09:23:23;;;;;;;16.63;12.80;;;5.50;99.90;;;;;;5029220;28;20986;-71
2022/04/01 09:26:08;;;;;;;13.67;12.00;;;5.50;99.90;;;;;;5025247;28;20800;-71
2022/04/01 09:28:54;;;;;;;13.80;12.35;;;5.60;99.90;;;;;;5025460;28;20455;-71
2022/04/01 09:31:42;;;;;;;15.60;13.50;;;5.60;99.90;;;;;;5028262;28;20200;-71
2022/04/01 09:34:31;;;;;;;14.93;12.70;;;5.60;99.90;;;;;;5028309;28;20471;-71
2022/04/01 09:37:17;;;;;;;15.63;11.77;;;5.40;99.90;;;;;;5024978;28;20217;-71
2022/04/01 09:40:03;;;;;;;16.97;13.60;;;5.50;99.90;;;;;;5025588;28;20411;-71
2022/04/01 09:42:49;;;;;;;16.97;11.60;;;5.40;99.90;;;;;;5030682;28;20815;-71
2022/04/01 09:45:36;;;;;;;17.07;12.87;;;5.40;99.90;;;;;;5027657;28;20464;-71
2022/04/01 09:48:22;;;;;;;16.07;12.13;;;5.50;99.90;;;;;;5023047;28;21501;-71
2022/04/01 09:51:10;;;;;;;14.70;13.00;;;5.50;99.90;;;;;;5030981;28;20511;-71
2022/04/01 09:53:58;;;;;;;15.60;13.27;;;5.50;99.90;;;;;;5027614;28;20522;-71
2022/04/01 09:56:46;;;;;;;15.63;11.20;;;5.50;99.90;;;;;;5023266;28;20490;-71
2022/04/01 09:59:33;;;;;;;13.73;10.47;;;5.50;99.90;;;;;;5027536;28;20411;-71
2022/04/01 10:02:20;;;;;;;11.50;10.10;;;5.50;99.90;;;;;;5025229;28;21920;-71
2022/04/01 10:05:07;;;;;;;11.20;9.70;;;5.40;99.90;;;;;;5026239;28;20440;-73
2022/04/01 10:07:56;;;;;;;9.73;8.70;;;5.50;99.90;;;;;;5022482;28;20565;-73
2022/04/01 10:10:43;;;;;;;8.90;7.87;;;5.60;99.90;;;;;;5028166;28;20448;-74
2022/04/01 10:13:31;;;;;;;16.23;10.95;;;5.60;99.90;;;;;;5027236;28;20567;-72
2022/04/01 10:16:19;;;;;;;10.43;9.43;;;5.50;99.90;;;;;;5026438;28;20221;-72
2022/04/01 10:19:11;;;;;;;9.60;8.70;;;5.50;99.90;;;;;;5030177;28;20453;-72
2022/04/01 10:21:58;;;;;;;9.13;7.70;;;5.50;99.90;;;;;;5029028;28;20523;-72
2022/04/01 10:24:52;;;;;;;8.23;7.27;;;5.50;99.90;;;;;;5022720;28;20440;-72
2022/04/01 10:27:40;;;;;;;9.47;7.47;;;5.40;99.90;;;;;;5025187;28;20477;-72
2022/04/01 10:30:27;;;;;;;10.13;8.77;;;5.40;99.90;;;;;;5027287;28;20440;-72
2022/04/01 10:33:22;;;;;;;8.40;7.50;;;5.40;99.90;;;;;;5025843;28;20822;-72
2022/04/01 10:36:29;;;;;;;9.80;7.93;;;5.30;99.90;;;;;;5025159;28;20562;-72
2022/04/01 10:39:18;;;;;;;8.07;6.40;;;5.30;99.90;;;;;;5025849;28;20443;-72
2022/04/01 10:42:11;;;;;;;8.03;6.80;;;5.40;99.90;;;;;;5026423;28;20472;-72
2022/04/01 10:44:58;;;;;;;9.47;8.33;;;5.40;99.90;;;;;;5024379;28;20535;-73
2022/04/01 10:54:43;;;;;;;10.60;8.33;;;5.40;99.90;;;;;;5032898;28;20478;-72
2022/04/01 10:57:32;;;;;;;14.40;11.47;;;5.40;99.90;;;;;;5027013;28;20444;-73
2022/04/01 11:00:19;;;;;;;9.90;8.47;;;5.40;99.90;;;;;;5029708;28;20592;-72
2022/04/01 11:03:23;;;;;;;9.73;8.03;;;5.40;99.90;;;;;;5029352;28;20452;-73
2022/04/01 11:06:27;;;;;;;8.17;6.80;;;5.40;99.90;;;;;;5027370;28;21016;-73
2022/04/01 11:09:36;;;;;;;8.90;7.47;;;5.40;99.90;;;;;;5036414;23;21243;-74
2022/04/01 11:12:25;;;;;;;10.50;8.53;;;5.30;99.90;;;;;;5027523;28;20567;-74
2022/04/01 11:15:16;;;;;;;10.67;8.40;;;5.30;99.90;;;;;;5025163;28;21011;-75
2022/04/01 11:18:10;;;;;;;12.67;8.60;;;5.30;99.90;;;;;;5015767;28;20606;-74
2022/04/01 11:20:57;;;;;;;9.80;8.80;;;5.30;99.90;;;;;;5009750;28;20965;-74
2022/04/01 11:23:43;;;;;;;11.40;8.50;;;5.20;99.90;;;;;;5005980;28;20445;-74
2022/04/01 11:26:40;;;;;;;13.67;10.60;;;5.20;99.90;;;;;;5006790;28;20448;-74
2022/04/01 11:29:27;;;;;;;50.57;22.50;;;5.20;99.90;;;;;;5002415;28;20609;-74
2022/04/01 11:32:19;;;;;;;267.08;91.90;;;5.20;99.90;;;;;;5007936;28;20446;-74
2022/04/01 11:35:06;;;;;;;19.60;10.90;;;5.20;99.90;;;;;;5007215;28;20715;-74
2022/04/01 11:37:52;;;;;;;11.80;10.50;;;5.30;99.90;;;;;;5006171;28;20472;-74
2022/04/01 11:40:40;;;;;;;9.50;8.35;;;5.30;99.90;;;;;;5007006;28;20450;-75
2022/04/01 11:43:27;;;;;;;9.13;8.10;;;5.20;99.90;;;;;;5011807;28;20326;-75
2022/04/01 11:46:13;;;;;;;10.80;7.40;;;5.20;99.90;;;;;;5008803;28;20408;-75
2022/04/01 11:49:00;;;;;;;8.97;7.10;;;5.20;99.90;;;;;;5002742;28;20944;-75
2022/04/01 11:51:46;;;;;;;8.63;6.90;;;5.30;99.90;;;;;;5006675;28;20437;-74
2022/04/01 11:54:32;;;;;;;8.00;6.57;;;5.20;99.90;;;;;;5006627;28;20823;-75
2022/04/01 11:57:17;;;;;;;6.90;5.73;;;5.30;99.90;;;;;;5006243;28;20457;-74
2022/04/01 12:00:09;;;;;;;8.27;7.07;;;5.20;99.90;;;;;;5005443;28;20473;-74
2022/04/01 12:02:55;;;;;;;7.73;6.00;;;5.30;99.90;;;;;;5009865;28;20574;-74
2022/04/01 12:05:42;;;;;;;8.13;6.60;;;5.30;99.90;;;;;;5011138;28;20446;-74
2022/04/01 12:08:41;;;;;;;7.00;6.30;;;5.30;99.90;;;;;;5007967;28;21002;-74
2022/04/01 12:11:27;;;;;;;8.17;6.60;;;5.20;99.90;;;;;;5011607;28;20256;-74
2022/04/01 12:14:14;;;;;;;9.60;6.87;;;5.20;99.90;;;;;;5011780;28;20929;-75
2022/04/01 12:17:05;;;;;;;10.67;7.90;;;5.20;99.90;;;;;;5010888;28;20823;-75
2022/04/01 12:19:51;;;;;;;9.30;7.00;;;5.30;99.90;;;;;;5008752;28;20813;-75
2022/04/01 12:22:41;;;;;;;6.50;5.90;;;5.30;99.90;;;;;;5012153;28;20903;-75
2022/04/01 12:25:30;;;;;;;7.53;6.23;;;5.40;99.90;;;;;;5009886;28;20451;-74
2022/04/01 12:28:18;;;;;;;8.77;7.80;;;5.30;99.90;;;;;;5005721;28;20597;-74
2022/04/01 12:31:03;;;;;;;10.20;7.80;;;5.30;99.90;;;;;;5011985;28;20201;-74
2022/04/01 12:33:51;;;;;;;8.82;6.45;;;5.30;99.90;;;;;;5012790;28;20597;-75
2022/04/01 12:36:38;;;;;;;8.25;6.57;;;5.20;99.90;;;;;;5010173;28;20210;-75
2022/04/01 12:39:25;;;;;;;8.40;6.73;;;5.30;99.90;;;;;;5008833;28;20229;-74
2022/04/01 12:42:14;;;;;;;8.13;6.67;;;5.30;99.90;;;;;;5008661;28;20448;-74
2022/04/01 12:45:00;;;;;;;8.30;6.67;;;5.30;99.90;;;;;;5009200;28;20449;-74
2022/04/01 12:47:46;;;;;;;9.03;7.57;;;5.20;99.90;;;;;;5006585;28;20510;-74
2022/04/01 12:50:33;;;;;;;6.93;6.20;;;5.20;99.90;;;;;;5012190;28;20453;-74
2022/04/01 12:53:19;;;;;;;8.10;7.03;;;5.20;99.90;;;;;;5009901;28;20453;-74
2022/04/01 12:56:19;;;;;;;7.73;6.53;;;5.20;99.90;;;;;;5003688;28;21056;-74
2022/04/01 12:59:07;;;;;;;8.00;6.57;;;5.10;99.90;;;;;;5005737;28;20848;-74
2022/04/01 13:01:59;;;;;;;8.73;6.53;;;4.90;99.90;;;;;;5007404;28;20655;-74
2022/04/01 13:04:47;;;;;;;6.95;6.25;;;4.90;99.90;;;;;;5008278;28;21033;-75
2022/04/01 13:07:34;;;;;;;8.20;6.97;;;4.80;99.90;;;;;;5009774;28;20575;-74
2022/04/01 13:10:21;;;;;;;7.80;6.47;;;4.90;99.90;;;;;;5008501;28;20440;-74
2022/04/01 13:13:20;;;;;;;7.10;6.17;;;4.90;99.90;;;;;;5011008;28;20213;-74
2022/04/01 13:16:06;;;;;;;13.57;7.15;;;4.90;99.90;;;;;;5011588;28;20826;-74
2022/04/01 13:18:53;;;;;;;7.28;6.40;;;4.90;99.90;;;;;;5008745;28;20290;-74
2022/04/01 13:21:39;;;;;;;7.40;6.70;;;4.90;99.90;;;;;;5007818;28;20213;-74
2022/04/01 13:24:26;;;;;;;8.80;7.25;;;4.80;99.90;;;;;;5009961;28;20578;-74
2022/04/01 13:27:14;;;;;;;8.27;7.32;;;4.80;99.90;;;;;;5006437;28;20202;-74
2022/04/01 13:30:01;;;;;;;8.98;7.78;;;4.80;99.90;;;;;;5007083;28;20347;-74
2022/04/01 13:32:47;;;;;;;8.65;7.75;;;4.80;99.90;;;;;;5009716;28;20204;-74
2022/04/01 13:35:33;;;;;;;9.70;8.05;;;4.70;99.90;;;;;;5010591;28;20241;-74
2022/04/01 13:38:18;;;;;;;9.07;7.70;;;4.60;99.90;;;;;;5008080;28;20225;-74
2022/04/01 13:41:04;;;;;;;9.25;8.05;;;4.60;99.90;;;;;;5005892;28;20543;-74
2022/04/01 13:43:50;;;;;;;9.43;8.13;;;4.50;99.90;;;;;;5004306;28;20237;-74
2022/04/01 13:46:37;;;;;;;9.60;8.48;;;4.50;99.90;;;;;;5005937;28;20451;-74
2022/04/01 13:49:23;;;;;;;9.95;8.50;;;4.40;99.90;;;;;;5012284;28;20352;-74
2022/04/01 13:52:10;;;;;;;8.70;7.72;;;4.40;99.90;;;;;;5009379;28;20299;-74
2022/04/01 13:54:56;;;;;;;10.30;8.07;;;4.40;99.90;;;;;;5011514;28;20204;-74
2022/04/01 13:57:41;;;;;;;11.60;8.47;;;4.40;99.90;;;;;;5003301;28;20318;-74
2022/04/01 14:00:27;;;;;;;8.93;8.03;;;4.40;99.90;;;;;;5006945;28;20441;-74
2022/04/01 14:03:14;;;;;;;11.18;9.70;;;4.40;99.90;;;;;;5007567;28;20449;-74
2022/04/01 14:06:00;;;;;;;11.57;9.63;;;4.40;99.90;;;;;;5005701;28;20696;-74
2022/04/01 14:08:46;;;;;;;12.10;9.52;;;4.50;99.90;;;;;;5009762;28;20308;-74
2022/04/01 14:11:33;;;;;;;9.18;8.15;;;4.50;99.90;;;;;;5010084;28;20676;-74
2022/04/01 14:14:19;;;;;;;10.40;8.90;;;4.40;99.90;;;;;;5007740;28;20246;-74
2022/04/01 14:17:06;;;;;;;9.55;7.75;;;4.40;99.90;;;;;;5006849;28;21095;-74
2022/04/01 14:19:53;;;;;;;9.15;8.02;;;4.40;99.90;;;;;;5012375;28;20702;-74
2022/04/01 14:22:38;;;;;;;9.65;8.15;;;4.30;99.90;;;;;;5007875;28;20204;-73
2022/04/01 14:25:24;;;;;;;11.97;8.40;;;4.30;99.90;;;;;;5003319;28;20694;-75
2022/04/01 14:28:10;;;;;;;10.63;8.55;;;4.20;99.90;;;;;;5006466;28;20616;-74
2022/04/01 14:30:56;;;;;;;10.13;8.73;;;4.30;99.90;;;;;;5009971;28;20208;-74
2022/04/01 14:33:41;;;;;;;8.82;7.93;;;4.20;99.90;;;;;;5009063;28;20205;-74
2022/04/01 14:36:29;;;;;;;9.98;8.18;;;4.20;99.90;;;;;;5005714;28;20254;-74
2022/04/01 14:39:14;;;;;;;10.23;8.10;;;4.30;99.90;;;;;;5007858;28;20278;-74
2022/04/01 14:42:01;;;;;;;9.60;8.40;;;4.40;99.90;;;;;;5010641;28;20212;-74
2022/04/01 14:44:47;;;;;;;10.18;8.75;;;4.40;99.90;;;;;;5005957;28;20204;-74
2022/04/01 14:47:33;;;;;;;9.13;8.15;;;4.40;99.90;;;;;;5001248;28;20332;-74